Time;durP1;ratioP1;P1;durP2;ratioP2;P2;SDS_P1;SDS_P2;PMS_P1;PMS_P2;Temp;Humidity;BMP_temperature;BMP_pressure;BME280_temperature;BME280_humidity;BME280_pressure;Samples;Min_cycle;Max_cycle;Signal;HPM_P1;HPM_P2
2023/04/09 00:04:23;;;;;;;43.67;30.80;;;7.30;99.90;;;;;;10236055;29;20237;-86
2023/04/09 00:09:26;;;;;;;43.13;29.57;;;7.20;99.90;;;;;;10247774;29;20308;-85
2023/04/09 00:14:29;;;;;;;39.30;27.00;;;7.20;99.90;;;;;;10229294;29;20245;-85
2023/04/09 00:19:32;;;;;;;44.57;27.43;;;7.30;99.90;;;;;;10227296;28;20338;-85
2023/04/09 00:24:34;;;;;;;45.50;29.40;;;7.30;99.90;;;;;;10227832;29;20657;-84
2023/04/09 00:29:37;;;;;;;39.00;25.13;;;7.20;99.90;;;;;;10224454;29;20249;-85
2023/04/09 00:34:39;;;;;;;37.90;25.77;;;7.30;99.90;;;;;;10246160;29;20248;-85
2023/04/09 00:39:42;;;;;;;45.20;27.57;;;7.20;99.90;;;;;;10245215;29;20289;-85
2023/04/09 00:44:44;;;;;;;37.30;25.43;;;7.20;99.90;;;;;;10208020;29;20308;-85
2023/04/09 00:49:47;;;;;;;36.60;25.33;;;7.20;99.90;;;;;;10209141;29;20234;-85
2023/04/09 00:54:50;;;;;;;43.67;23.80;;;7.30;99.90;;;;;;10205268;29;20266;-85
2023/04/09 00:59:54;;;;;;;43.87;26.83;;;7.50;99.90;;;;;;10206506;29;20314;-85
2023/04/09 01:04:57;;;;;;;34.37;22.90;;;7.40;99.90;;;;;;10207118;29;20320;-85
2023/04/09 01:10:20;;;;;;;34.77;24.00;;;7.40;99.90;;;;;;10206928;29;20660;-85
2023/04/09 01:15:26;;;;;;;39.73;27.90;;;7.40;99.90;;;;;;10233055;29;20231;-84
2023/04/09 01:20:59;;;;;;;39.00;27.30;;;7.40;99.90;;;;;;10213947;29;20320;-84
2023/04/09 01:26:11;;;;;;;28.57;19.20;;;7.50;99.90;;;;;;10206882;29;20262;-85
2023/04/09 01:31:36;;;;;;;40.97;26.20;;;7.60;99.90;;;;;;10213132;29;20250;-85
2023/04/09 01:36:41;;;;;;;40.70;26.10;;;7.50;99.90;;;;;;10206255;29;20316;-85
2023/04/09 01:41:43;;;;;;;39.37;27.30;;;7.60;99.90;;;;;;10214807;29;20230;-85
2023/04/09 01:46:48;;;;;;;32.53;20.93;;;7.60;99.90;;;;;;10244978;29;20237;-85
2023/04/09 01:51:50;;;;;;;32.57;21.93;;;7.60;99.90;;;;;;10206730;28;20277;-85
2023/04/09 01:56:55;;;;;;;37.43;26.37;;;7.80;99.90;;;;;;10206308;29;20242;-85
2023/04/09 02:02:14;;;;;;;35.13;24.57;;;7.90;99.90;;;;;;10188416;29;20243;-85
2023/04/09 02:07:20;;;;;;;39.37;25.83;;;7.90;99.90;;;;;;10204656;29;20276;-85
2023/04/09 02:12:24;;;;;;;39.53;26.47;;;7.90;99.90;;;;;;10228768;29;20296;-85
2023/04/09 02:17:27;;;;;;;37.40;24.97;;;7.70;99.90;;;;;;10251830;29;20260;-85
2023/04/09 02:22:29;;;;;;;38.10;24.73;;;7.60;99.90;;;;;;10241516;29;20301;-85
2023/04/09 02:27:33;;;;;;;36.03;23.43;;;7.60;99.90;;;;;;10211999;29;20212;-85
2023/04/09 02:32:36;;;;;;;35.30;21.87;;;7.70;99.90;;;;;;10196297;29;20238;-85
2023/04/09 02:37:39;;;;;;;28.77;20.40;;;7.50;99.90;;;;;;10243331;29;20786;-85
2023/04/09 02:42:41;;;;;;;34.70;22.83;;;7.60;99.90;;;;;;10231463;29;20703;-85
2023/04/09 02:47:44;;;;;;;27.60;19.10;;;7.60;99.90;;;;;;10211569;29;20250;-85
2023/04/09 02:52:47;;;;;;;29.70;20.93;;;7.70;99.90;;;;;;10217124;29;20611;-85
2023/04/09 02:57:49;;;;;;;32.10;20.63;;;8.00;99.90;;;;;;10231409;29;20332;-85
2023/04/09 03:02:52;;;;;;;26.47;18.17;;;8.00;99.90;;;;;;10212044;29;20239;-85
2023/04/09 03:07:55;;;;;;;35.97;22.93;;;8.10;99.90;;;;;;10226153;29;20256;-85
2023/04/09 03:12:58;;;;;;;30.10;21.70;;;8.20;99.90;;;;;;10209226;29;20307;-85
2023/04/09 03:18:00;;;;;;;25.70;17.37;;;8.00;99.90;;;;;;10194387;29;20321;-85
2023/04/09 03:23:03;;;;;;;25.00;17.03;;;8.10;99.90;;;;;;10210484;29;20356;-85
2023/04/09 03:28:11;;;;;;;35.57;23.13;;;8.10;99.90;;;;;;10209009;29;20306;-85
2023/04/09 03:33:26;;;;;;;33.50;20.93;;;8.00;99.90;;;;;;10208635;29;20645;-85
2023/04/09 03:38:31;;;;;;;25.77;18.27;;;8.00;99.90;;;;;;10248683;29;20266;-85
2023/04/09 03:43:38;;;;;;;29.80;20.20;;;8.00;99.90;;;;;;10224311;29;20640;-85
2023/04/09 03:48:43;;;;;;;26.90;19.23;;;8.00;99.90;;;;;;10238626;28;20684;-85
2023/04/09 03:53:46;;;;;;;34.87;24.47;;;7.80;99.90;;;;;;10207832;29;20305;-85
2023/04/09 03:58:49;;;;;;;29.83;18.63;;;7.70;99.90;;;;;;10219678;29;20296;-85
2023/04/09 04:03:56;;;;;;;25.17;17.53;;;7.70;99.90;;;;;;10247183;29;20214;-85
2023/04/09 04:09:05;;;;;;;34.90;22.63;;;8.00;99.90;;;;;;10243649;29;20210;-85
2023/04/09 04:14:15;;;;;;;32.77;23.87;;;8.20;99.90;;;;;;10241366;29;20213;-85
2023/04/09 04:19:21;;;;;;;30.13;21.80;;;7.90;99.90;;;;;;10246609;29;20304;-85
2023/04/09 04:24:26;;;;;;;31.43;22.57;;;7.90;99.90;;;;;;10214111;29;20326;-85
2023/04/09 04:29:29;;;;;;;28.33;19.07;;;7.80;99.90;;;;;;10207312;29;20266;-85
2023/04/09 04:34:34;;;;;;;39.03;26.97;;;7.60;99.90;;;;;;10241798;28;20236;-85
2023/04/09 04:39:45;;;;;;;38.80;25.27;;;7.60;99.90;;;;;;10231720;29;20253;-85
2023/04/09 04:44:50;;;;;;;39.30;25.27;;;7.40;99.90;;;;;;10241283;29;20288;-85
2023/04/09 04:50:16;;;;;;;39.17;25.53;;;7.10;99.90;;;;;;10242630;29;20284;-85
2023/04/09 04:55:28;;;;;;;45.20;26.80;;;7.10;99.90;;;;;;10246600;29;20288;-85
2023/04/09 05:00:32;;;;;;;33.13;23.83;;;7.20;99.90;;;;;;10245639;29;20260;-85
2023/04/09 05:05:37;;;;;;;38.73;24.30;;;7.30;99.90;;;;;;10245773;29;20239;-85
2023/04/09 05:10:45;;;;;;;36.60;25.60;;;7.30;99.90;;;;;;10204977;29;20246;-85
2023/04/09 05:15:48;;;;;;;38.27;27.00;;;7.20;99.90;;;;;;10228817;29;20208;-85
2023/04/09 05:20:51;;;;;;;36.70;23.43;;;7.10;99.90;;;;;;10244236;29;20255;-85
2023/04/09 05:25:54;;;;;;;35.63;24.63;;;7.00;99.90;;;;;;10233697;29;20204;-85
2023/04/09 05:31:11;;;;;;;39.13;25.50;;;7.10;99.90;;;;;;10214523;29;20241;-85
2023/04/09 05:36:20;;;;;;;38.77;25.67;;;7.30;99.90;;;;;;10246070;29;20222;-85
2023/04/09 05:41:22;;;;;;;31.03;21.70;;;7.30;99.90;;;;;;10244634;29;20256;-85
2023/04/09 05:46:41;;;;;;;43.73;28.97;;;7.30;99.90;;;;;;10211307;29;20272;-85
2023/04/09 05:51:45;;;;;;;42.33;27.70;;;7.20;99.90;;;;;;10213252;29;20274;-85
2023/04/09 05:56:55;;;;;;;45.70;28.17;;;7.30;99.90;;;;;;10213708;29;20781;-84
2023/04/09 06:01:57;;;;;;;42.03;28.53;;;7.30;99.90;;;;;;10254319;28;20257;-85
2023/04/09 06:07:00;;;;;;;29.87;19.57;;;7.30;99.90;;;;;;10242905;28;20245;-85
2023/04/09 06:12:03;;;;;;;43.33;27.53;;;7.20;99.90;;;;;;10212774;29;20622;-85
2023/04/09 06:17:06;;;;;;;36.57;22.73;;;7.10;99.90;;;;;;10214097;29;20239;-85
2023/04/09 06:22:09;;;;;;;34.23;20.03;;;7.10;99.90;;;;;;10218053;29;20238;-85
2023/04/09 06:27:12;;;;;;;39.97;20.80;;;7.30;99.90;;;;;;10217521;29;20261;-84
2023/04/09 06:32:15;;;;;;;40.93;24.87;;;7.90;99.90;;;;;;10227201;28;20213;-85
2023/04/09 06:37:17;;;;;;;45.23;28.63;;;7.90;99.90;;;;;;10213765;29;20253;-84
2023/04/09 06:42:20;;;;;;;40.50;25.70;;;7.60;99.90;;;;;;10211746;29;20621;-85
2023/04/09 06:47:32;;;;;;;42.23;25.20;;;7.50;99.90;;;;;;10211899;29;20248;-85
2023/04/09 06:52:35;;;;;;;46.33;26.73;;;7.50;99.90;;;;;;10195469;29;20810;-85
2023/04/09 06:57:38;;;;;;;45.00;25.13;;;7.60;99.90;;;;;;10227444;28;20252;-84
2023/04/09 07:02:40;;;;;;;58.37;31.83;;;7.80;99.90;;;;;;10216636;29;20227;-87
2023/04/09 07:07:43;;;;;;;58.37;33.60;;;7.80;99.90;;;;;;10217162;28;20253;-84
2023/04/09 07:12:46;;;;;;;52.40;29.90;;;7.90;99.90;;;;;;10212128;29;20251;-85
2023/04/09 07:17:48;;;;;;;60.27;34.47;;;8.10;99.90;;;;;;10212173;29;20292;-85
2023/04/09 07:22:51;;;;;;;55.03;30.77;;;8.10;99.90;;;;;;10219387;29;20240;-86
2023/04/09 07:27:54;;;;;;;48.33;27.20;;;8.20;99.90;;;;;;10243040;29;20290;-86
2023/04/09 07:32:56;;;;;;;56.03;27.77;;;8.30;99.90;;;;;;10249712;28;20235;-86
2023/04/09 07:37:59;;;;;;;61.23;33.20;;;8.50;99.90;;;;;;10230419;29;20250;-86
2023/04/09 07:43:03;;;;;;;55.07;33.03;;;8.60;99.90;;;;;;10245880;29;20645;-86
2023/04/09 07:48:08;;;;;;;55.17;32.57;;;8.80;99.90;;;;;;10219244;28;20255;-85
2023/04/09 07:53:11;;;;;;;32.63;18.97;;;9.00;99.90;;;;;;10230124;29;20264;-84
2023/04/09 07:58:14;;;;;;;56.10;34.20;;;9.20;99.90;;;;;;10245170;29;20268;-85
2023/04/09 08:03:18;;;;;;;47.77;27.97;;;9.40;99.90;;;;;;10245103;28;20284;-84
2023/04/09 08:08:20;;;;;;;49.73;27.60;;;9.50;99.90;;;;;;10227525;28;20245;-85
2023/04/09 08:13:26;;;;;;;36.20;22.23;;;9.50;99.90;;;;;;10210103;29;20232;-85
2023/04/09 08:18:29;;;;;;;54.37;32.03;;;9.60;99.90;;;;;;10218532;29;20712;-85
2023/04/09 08:23:32;;;;;;;51.70;33.53;;;;;;;;;;10231814;29;20227;-85
2023/04/09 08:28:34;;;;;;;63.60;37.33;;;9.70;99.90;;;;;;10229583;29;20237;-86
2023/04/09 08:33:37;;;;;;;61.00;36.83;;;9.50;99.90;;;;;;10212938;29;20233;-82
2023/04/09 08:38:40;;;;;;;51.47;30.80;;;9.20;99.90;;;;;;10209499;29;20708;-82
2023/04/09 08:43:46;;;;;;;38.47;20.73;;;9.20;99.90;;;;;;10209472;29;20753;-81
2023/04/09 08:48:54;;;;;;;52.90;31.37;;;9.50;99.90;;;;;;10209702;29;20228;-83
2023/04/09 08:53:59;;;;;;;45.53;28.37;;;9.70;99.90;;;;;;10223252;28;20326;-83
2023/04/09 08:59:05;;;;;;;52.87;30.97;;;9.90;99.90;;;;;;10248181;29;20254;-83
2023/04/09 09:04:08;;;;;;;44.87;28.27;;;10.00;99.90;;;;;;10213871;29;20208;-83
2023/04/09 09:09:13;;;;;;;47.37;28.43;;;10.00;99.90;;;;;;10209506;28;20373;-83
2023/04/09 09:14:19;;;;;;;34.57;20.57;;;10.00;99.90;;;;;;10226777;29;20259;-82
2023/04/09 09:19:25;;;;;;;40.50;24.40;;;;;;;;;;10238298;28;20265;-83
2023/04/09 09:24:28;;;;;;;42.37;24.50;;;10.70;99.90;;;;;;10207329;29;20701;-81
2023/04/09 09:29:31;;;;;;;44.27;26.00;;;;;;;;;;10227497;29;20575;-84
2023/04/09 09:34:34;;;;;;;43.10;24.97;;;;;;;;;;10206896;29;20215;-83
2023/04/09 09:39:46;;;;;;;43.57;28.87;;;;;;;;;;10218490;28;21034;-81
2023/04/09 09:44:50;;;;;;;48.17;28.33;;;11.20;99.90;;;;;;10206699;28;20237;-82
2023/04/09 09:49:53;;;;;;;46.90;28.30;;;11.20;99.90;;;;;;10214221;29;20242;-82
2023/04/09 09:55:00;;;;;;;46.53;29.53;;;10.90;99.90;;;;;;10206366;29;20261;-81
2023/04/09 10:00:03;;;;;;;42.70;28.77;;;11.00;99.90;;;;;;9881352;28;10000249;-81
2023/04/09 10:05:14;;;;;;;34.47;21.73;;;10.80;99.90;;;;;;10224912;29;20253;-82
2023/04/09 10:10:17;;;;;;;42.60;26.60;;;10.80;99.90;;;;;;10234890;29;20308;-82
2023/04/09 10:15:20;;;;;;;42.27;25.73;;;11.00;99.90;;;;;;10207393;29;20278;-82
2023/04/09 10:20:31;;;;;;;39.13;24.27;;;11.00;99.90;;;;;;10207618;28;20257;-82
2023/04/09 10:25:34;;;;;;;39.07;26.20;;;11.00;99.90;;;;;;10222715;29;20235;-82
2023/04/09 10:30:36;;;;;;;38.00;23.73;;;10.90;99.90;;;;;;10235277;28;20669;-82
2023/04/09 10:35:39;;;;;;;38.40;24.63;;;10.90;99.90;;;;;;10237581;29;20645;-81
2023/04/09 10:40:48;;;;;;;42.00;27.93;;;10.90;99.90;;;;;;10239618;29;20277;-82
2023/04/09 10:45:53;;;;;;;31.47;21.37;;;11.10;99.90;;;;;;10245303;23;20657;-82
2023/04/09 10:50:55;;;;;;;43.17;25.27;;;11.30;99.90;;;;;;10253993;28;20238;-84
2023/04/09 10:55:58;;;;;;;40.80;26.33;;;11.50;99.90;;;;;;10261842;23;20305;-83
2023/04/09 11:01:01;;;;;;;36.37;22.70;;;11.30;99.90;;;;;;10255177;29;20220;-84
2023/04/09 11:06:08;;;;;;;35.83;24.17;;;11.40;99.90;;;;;;10253190;29;20203;-83
2023/04/09 11:11:11;;;;;;;31.87;22.50;;;11.50;99.90;;;;;;10253749;29;20613;-84
2023/04/09 11:16:14;;;;;;;29.13;20.63;;;;;;;;;;10253128;29;20256;-84
2023/04/09 11:21:30;;;;;;;32.20;23.10;;;12.00;99.90;;;;;;10252319;29;20230;-84
2023/04/09 11:26:36;;;;;;;32.00;21.90;;;12.50;99.90;;;;;;10253490;29;20253;-83
2023/04/09 11:31:39;;;;;;;30.03;21.67;;;;;;;;;;10253277;29;20300;-84
2023/04/09 11:36:41;;;;;;;26.60;19.83;;;12.20;99.90;;;;;;10236841;29;20278;-83
2023/04/09 11:41:44;;;;;;;25.60;18.53;;;12.40;99.90;;;;;;10250704;28;20234;-84
2023/04/09 11:46:47;;;;;;;28.57;21.50;;;;;;;;;;10252663;29;20234;-83
2023/04/09 11:51:50;;;;;;;26.50;18.23;;;12.60;99.90;;;;;;10252718;28;20823;-83
2023/04/09 11:56:54;;;;;;;23.60;17.43;;;12.60;99.90;;;;;;10252218;29;20301;-84
2023/04/09 12:01:57;;;;;;;28.57;16.90;;;12.50;99.90;;;;;;10252524;29;20218;-83
2023/04/09 12:07:00;;;;;;;26.60;19.43;;;12.40;99.90;;;;;;10250393;29;20268;-83
2023/04/09 12:12:07;;;;;;;21.37;16.70;;;12.40;99.90;;;;;;10252610;29;20257;-83
2023/04/09 12:17:10;;;;;;;23.77;15.40;;;12.40;99.90;;;;;;10251495;28;20245;-84
2023/04/09 12:22:12;;;;;;;21.30;15.97;;;12.40;99.90;;;;;;10252646;29;20233;-84
2023/04/09 12:27:15;;;;;;;22.23;17.17;;;12.60;99.90;;;;;;10251783;28;20711;-84
2023/04/09 12:32:18;;;;;;;22.60;17.23;;;12.60;99.90;;;;;;10250045;29;20202;-83
2023/04/09 12:37:21;;;;;;;22.30;18.47;;;12.70;99.90;;;;;;10251425;29;20214;-84
2023/04/09 12:42:24;;;;;;;24.00;17.23;;;12.80;99.90;;;;;;10251486;29;20270;-85
2023/04/09 12:47:26;;;;;;;20.37;15.23;;;13.00;99.90;;;;;;10250459;29;20210;-84
2023/04/09 12:52:29;;;;;;;24.63;18.37;;;13.10;99.90;;;;;;10251040;28;20210;-83
2023/04/09 12:57:32;;;;;;;21.00;16.63;;;13.10;99.90;;;;;;10250881;28;20242;-84
2023/04/09 13:02:35;;;;;;;25.00;15.90;;;13.30;99.90;;;;;;10249890;29;20265;-83
2023/04/09 13:07:38;;;;;;;21.33;16.70;;;13.40;99.90;;;;;;10249710;29;20229;-84
2023/04/09 13:12:44;;;;;;;22.43;15.90;;;13.50;99.90;;;;;;10249624;29;20210;-84
2023/04/09 13:17:46;;;;;;;30.43;20.93;;;13.40;99.90;;;;;;10248503;29;20276;-84
2023/04/09 13:22:49;;;;;;;19.57;15.50;;;13.30;99.90;;;;;;10248885;29;20249;-84
2023/04/09 13:27:52;;;;;;;24.13;17.37;;;13.40;99.90;;;;;;10249266;29;20187;-84
2023/04/09 13:32:55;;;;;;;22.37;18.27;;;13.50;99.90;;;;;;10247607;29;20206;-84
2023/04/09 13:37:57;;;;;;;23.97;18.33;;;13.60;99.90;;;;;;10246674;29;20265;-84
2023/04/09 13:43:00;;;;;;;21.77;17.73;;;13.80;99.90;;;;;;10246955;29;20265;-84
2023/04/09 13:48:03;;;;;;;17.37;13.00;;;13.70;99.90;;;;;;10248245;29;20194;-84
2023/04/09 13:53:05;;;;;;;31.70;21.67;;;13.80;99.90;;;;;;10247540;28;20214;-84
2023/04/09 13:58:09;;;;;;;58.10;30.13;;;13.70;99.90;;;;;;10246494;29;20252;-84
2023/04/09 14:03:13;;;;;;;30.90;20.67;;;13.70;99.90;;;;;;10247711;29;20312;-84
2023/04/09 14:08:16;;;;;;;32.30;22.40;;;13.70;99.90;;;;;;10252764;28;20667;-84
2023/04/09 14:13:18;;;;;;;24.33;18.13;;;13.60;99.90;;;;;;10254584;29;20261;-84
2023/04/09 14:18:20;;;;;;;20.13;14.37;;;13.70;99.90;;;;;;10254961;29;20759;-83
2023/04/09 14:23:25;;;;;;;19.57;14.30;;;13.60;99.90;;;;;;10254676;29;20312;-84
2023/04/09 14:28:27;;;;;;;24.57;15.37;;;13.60;99.90;;;;;;10255184;29;20230;-84
2023/04/09 14:33:30;;;;;;;19.87;15.67;;;13.60;99.90;;;;;;10250915;28;20285;-82
2023/04/09 14:38:33;;;;;;;21.57;17.53;;;13.40;99.90;;;;;;10251630;28;20249;-82
2023/04/09 14:43:36;;;;;;;19.73;16.67;;;13.20;99.90;;;;;;9909689;28;10000070;-82
2023/04/09 14:48:39;;;;;;;20.70;17.60;;;12.70;99.90;;;;;;10248385;29;20305;-82
2023/04/09 14:53:41;;;;;;;20.03;16.83;;;12.40;99.90;;;;;;10248664;28;20241;-82
2023/04/09 14:58:44;;;;;;;25.73;22.57;;;12.20;99.90;;;;;;10249489;28;20254;-82
2023/04/09 15:03:47;;;;;;;25.53;21.57;;;11.90;99.90;;;;;;10251233;29;20247;-82
2023/04/09 15:08:50;;;;;;;26.37;20.77;;;11.90;99.90;;;;;;10249160;28;20245;-82
2023/04/09 15:13:53;;;;;;;27.73;22.40;;;11.90;99.90;;;;;;10247953;28;20250;-83
2023/04/09 15:18:57;;;;;;;38.27;32.87;;;11.90;99.90;;;;;;10248633;28;20651;-83
2023/04/09 15:24:00;;;;;;;24.00;18.40;;;11.80;99.90;;;;;;10246123;28;20663;-83
2023/04/09 15:29:09;;;;;;;24.30;19.40;;;11.80;99.90;;;;;;10246232;23;20275;-83
2023/04/09 15:34:12;;;;;;;23.10;18.90;;;11.80;99.90;;;;;;10207105;29;20232;-83
2023/04/09 15:39:14;;;;;;;28.07;21.67;;;11.70;99.90;;;;;;10191216;29;20231;-82
2023/04/09 15:44:16;;;;;;;31.67;23.17;;;11.70;99.90;;;;;;10181247;29;20223;-82
2023/04/09 15:49:19;;;;;;;34.33;24.63;;;11.60;99.90;;;;;;10206775;29;20240;-82
2023/04/09 15:54:22;;;;;;;45.37;29.60;;;11.40;99.90;;;;;;10207873;29;20310;-82
2023/04/09 15:59:25;;;;;;;31.83;23.30;;;11.20;99.90;;;;;;10207940;29;20267;-82
2023/04/09 16:04:27;;;;;;;27.57;22.77;;;11.00;99.90;;;;;;10208053;29;20893;-83
2023/04/09 16:09:30;;;;;;;41.27;27.23;;;11.00;99.90;;;;;;10206602;29;20234;-82
2023/04/09 16:14:33;;;;;;;26.40;21.97;;;10.90;99.90;;;;;;10207473;29;20231;-83
2023/04/09 16:19:35;;;;;;;18.13;13.93;;;10.90;99.90;;;;;;10208598;29;20200;-83
2023/04/09 16:24:38;;;;;;;18.53;13.53;;;11.00;99.90;;;;;;10190329;29;20227;-82
2023/04/09 16:29:42;;;;;;;18.63;14.13;;;10.90;99.90;;;;;;10206110;29;20249;-82
2023/04/09 16:34:44;;;;;;;15.33;12.03;;;11.00;99.90;;;;;;10206693;29;20288;-82
2023/04/09 16:39:47;;;;;;;12.67;9.97;;;11.10;99.90;;;;;;10208388;29;20292;-83
2023/04/09 16:44:49;;;;;;;13.50;10.80;;;11.10;99.90;;;;;;10208443;29;20262;-82
2023/04/09 16:49:52;;;;;;;19.17;14.13;;;11.20;99.90;;;;;;10199816;29;20230;-82
2023/04/09 16:54:55;;;;;;;21.27;16.73;;;11.20;99.90;;;;;;10207050;29;20214;-82
2023/04/09 16:59:57;;;;;;;65.83;33.87;;;11.30;99.90;;;;;;10189837;29;20262;-83
2023/04/09 17:05:00;;;;;;;17.50;11.40;;;11.30;99.90;;;;;;10206074;29;20238;-82
2023/04/09 17:10:02;;;;;;;18.77;12.33;;;11.10;99.90;;;;;;10204807;29;20340;-82
2023/04/09 17:15:06;;;;;;;21.87;15.97;;;11.10;99.90;;;;;;10206056;29;20241;-82
2023/04/09 17:20:09;;;;;;;34.87;21.80;;;11.20;99.90;;;;;;10205744;29;20261;-82
2023/04/09 17:25:11;;;;;;;22.30;14.83;;;11.10;99.90;;;;;;10206112;29;20254;-82
2023/04/09 17:30:14;;;;;;;42.87;24.70;;;11.00;99.90;;;;;;10205659;29;20280;-82
2023/04/09 17:35:16;;;;;;;35.73;22.67;;;10.90;99.90;;;;;;10201931;29;20259;-82
2023/04/09 17:40:19;;;;;;;18.23;13.37;;;10.70;99.90;;;;;;10207006;29;20313;-82
2023/04/09 17:45:22;;;;;;;12.27;10.70;;;10.30;99.90;;;;;;10209084;29;20239;-82
2023/04/09 17:50:24;;;;;;;19.10;12.07;;;9.90;99.90;;;;;;10201238;29;20230;-82
2023/04/09 17:55:27;;;;;;;15.43;11.53;;;9.90;99.90;;;;;;10211112;29;20242;-83
2023/04/09 18:00:30;;;;;;;41.13;20.00;;;9.80;99.90;;;;;;10211266;29;20642;-82
2023/04/09 18:05:33;;;;;;;44.30;26.60;;;9.70;99.90;;;;;;10191447;29;20713;-82
2023/04/09 18:10:36;;;;;;;31.43;19.90;;;9.30;99.90;;;;;;10210021;29;20325;-82
2023/04/09 18:15:38;;;;;;;26.87;15.93;;;9.30;99.90;;;;;;10204570;29;20230;-82
2023/04/09 18:20:41;;;;;;;24.30;17.67;;;9.50;99.90;;;;;;10207901;29;20235;-81
2023/04/09 18:25:43;;;;;;;25.83;18.87;;;9.60;99.90;;;;;;10210979;29;20258;-82
2023/04/09 18:30:46;;;;;;;28.63;19.57;;;9.60;99.90;;;;;;10208102;29;20227;-81
2023/04/09 18:35:49;;;;;;;22.63;17.30;;;9.70;99.90;;;;;;10278755;23;20270;-81
2023/04/09 18:40:51;;;;;;;24.13;16.53;;;9.60;99.90;;;;;;10223699;28;20734;-81
2023/04/09 18:46:00;;;;;;;29.17;22.03;;;9.50;99.90;;;;;;10249426;29;20253;-81
2023/04/09 18:51:02;;;;;;;26.57;18.87;;;9.40;99.90;;;;;;10244989;28;21226;-81
2023/04/09 18:56:06;;;;;;;17.70;12.00;;;9.40;99.90;;;;;;10248077;29;20244;-81
2023/04/09 19:01:10;;;;;;;25.50;15.57;;;9.40;99.90;;;;;;10233393;29;20328;-81
2023/04/09 19:06:16;;;;;;;39.70;23.23;;;9.40;99.90;;;;;;10250414;29;20238;-80
2023/04/09 19:11:19;;;;;;;39.33;25.60;;;9.30;99.90;;;;;;10250187;29;20700;-80
2023/04/09 19:16:22;;;;;;;33.30;22.53;;;9.10;99.90;;;;;;10250364;29;20666;-80
2023/04/09 19:21:24;;;;;;;22.80;15.77;;;9.20;99.90;;;;;;10251115;29;20943;-80
2023/04/09 19:26:27;;;;;;;59.97;23.73;;;9.30;99.90;;;;;;10246177;29;20234;-80
2023/04/09 19:31:31;;;;;;;51.60;22.33;;;9.30;99.90;;;;;;10274288;28;20598;-80
2023/04/09 19:36:33;;;;;;;34.20;21.50;;;9.20;99.90;;;;;;10248319;29;21017;-80
2023/04/09 19:41:36;;;;;;;36.47;26.10;;;9.20;99.90;;;;;;10234723;29;20951;-80
2023/04/09 19:46:38;;;;;;;26.63;17.47;;;9.30;99.90;;;;;;10231215;29;20238;-81
2023/04/09 19:51:41;;;;;;;42.07;26.87;;;9.40;99.90;;;;;;10245552;28;20226;-80
2023/04/09 19:56:43;;;;;;;26.43;17.83;;;9.40;99.90;;;;;;10217341;29;20696;-80
2023/04/09 20:01:48;;;;;;;32.20;22.90;;;9.40;99.90;;;;;;10244792;28;20293;-80
2023/04/09 20:06:51;;;;;;;78.10;30.77;;;9.40;99.90;;;;;;10266480;23;20651;-81
2023/04/09 20:11:54;;;;;;;69.00;29.77;;;9.50;99.90;;;;;;10249392;28;20694;-82
2023/04/09 20:16:56;;;;;;;53.70;22.13;;;9.50;99.90;;;;;;10214899;29;20691;-82
2023/04/09 20:21:59;;;;;;;29.53;15.87;;;9.50;99.90;;;;;;10256741;28;20920;-82
2023/04/09 20:27:02;;;;;;;39.47;20.97;;;9.50;99.90;;;;;;10232402;28;20230;-82
2023/04/09 20:32:05;;;;;;;42.43;24.07;;;9.50;99.90;;;;;;10229654;29;20245;-87
2023/04/09 20:37:07;;;;;;;40.37;23.77;;;9.30;99.90;;;;;;10228631;28;20683;-82
2023/04/09 20:42:10;;;;;;;44.30;24.87;;;9.20;99.90;;;;;;10253732;28;20262;-81
2023/04/09 20:47:14;;;;;;;39.90;22.80;;;9.00;99.90;;;;;;10246372;28;20312;-82
2023/04/09 20:52:16;;;;;;;44.47;27.50;;;9.00;99.90;;;;;;10242150;28;20237;-81
2023/04/09 20:57:20;;;;;;;47.33;29.97;;;9.10;99.90;;;;;;10231949;28;20300;-85
2023/04/09 21:02:23;;;;;;;33.37;20.83;;;9.10;99.90;;;;;;10262310;28;20265;-86
2023/04/09 21:07:25;;;;;;;51.67;27.07;;;9.10;99.90;;;;;;10232076;29;20273;-87
2023/04/09 21:12:28;;;;;;;45.70;26.67;;;9.30;99.90;;;;;;10244333;28;20241;-83
2023/04/09 21:17:31;;;;;;;24.50;15.13;;;9.40;99.90;;;;;;10258044;28;20230;-83
2023/04/09 21:22:34;;;;;;;28.80;20.33;;;9.60;99.90;;;;;;10235496;28;20257;-81
2023/04/09 21:27:37;;;;;;;34.67;23.33;;;9.70;99.90;;;;;;10249466;28;20625;-81
2023/04/09 21:32:39;;;;;;;26.97;19.53;;;9.50;99.90;;;;;;10249365;28;20229;-82
2023/04/09 21:37:42;;;;;;;31.73;21.03;;;9.40;99.90;;;;;;10253881;28;20233;-82
2023/04/09 21:42:45;;;;;;;44.03;30.10;;;9.20;99.90;;;;;;10281227;23;20824;-82
2023/04/09 21:47:47;;;;;;;43.73;28.73;;;9.00;99.90;;;;;;10208006;29;20235;-81
2023/04/09 21:52:50;;;;;;;27.90;19.73;;;9.00;99.90;;;;;;10216979;29;20266;-81
2023/04/09 21:57:54;;;;;;;24.37;17.50;;;9.00;99.90;;;;;;10198819;29;20278;-82
2023/04/09 22:03:00;;;;;;;31.93;21.47;;;8.90;99.90;;;;;;10205732;29;20282;-82
2023/04/09 22:08:03;;;;;;;19.57;14.67;;;8.70;99.90;;;;;;10223044;29;20226;-82
2023/04/09 22:13:05;;;;;;;19.97;13.50;;;8.50;99.90;;;;;;10188437;29;20298;-82
2023/04/09 22:18:08;;;;;;;32.40;20.93;;;8.30;99.90;;;;;;10204609;29;20608;-82
2023/04/09 22:23:11;;;;;;;33.87;21.93;;;8.00;99.90;;;;;;10186171;29;20720;-84
2023/04/09 22:28:13;;;;;;;28.70;20.23;;;7.70;99.90;;;;;;10188367;29;20227;-82
2023/04/09 22:33:16;;;;;;;25.57;18.43;;;7.30;99.90;;;;;;10193167;29;20243;-82
2023/04/09 22:38:19;;;;;;;26.53;17.63;;;7.20;99.90;;;;;;10186500;29;20243;-81
2023/04/09 22:43:22;;;;;;;24.13;16.10;;;7.20;99.90;;;;;;10172255;29;20322;-81
2023/04/09 22:48:24;;;;;;;18.57;14.37;;;7.00;99.90;;;;;;10170572;29;20606;-85
2023/04/09 22:53:27;;;;;;;25.57;18.30;;;7.00;99.90;;;;;;10179872;29;20247;-81
2023/04/09 22:58:30;;;;;;;37.87;25.03;;;7.00;99.90;;;;;;10178547;29;20258;-81
2023/04/09 23:03:32;;;;;;;36.13;21.77;;;6.90;99.90;;;;;;10210591;29;20258;-82
2023/04/09 23:08:35;;;;;;;22.57;14.60;;;6.40;99.90;;;;;;10209094;29;20953;-81
2023/04/09 23:13:37;;;;;;;35.97;22.50;;;6.30;99.90;;;;;;10210227;29;20270;-81
2023/04/09 23:18:40;;;;;;;23.93;15.53;;;6.20;99.90;;;;;;10209285;29;20684;-81
2023/04/09 23:23:42;;;;;;;30.83;21.23;;;6.20;99.90;;;;;;10208550;29;20266;-81
2023/04/09 23:28:45;;;;;;;30.97;20.73;;;6.30;99.90;;;;;;10208502;29;20266;-82
2023/04/09 23:33:47;;;;;;;29.20;19.90;;;6.10;99.90;;;;;;10200979;29;20290;-81
2023/04/09 23:38:50;;;;;;;31.07;21.70;;;5.90;99.90;;;;;;10187323;29;20238;-82
2023/04/09 23:43:52;;;;;;;31.50;22.37;;;5.60;99.90;;;;;;10148561;29;1115331;-81
2023/04/09 23:48:55;;;;;;;18.87;14.60;;;5.50;99.90;;;;;;10188872;29;20235;-81
2023/04/09 23:53:59;;;;;;;21.13;14.80;;;5.60;99.90;;;;;;10186804;29;20282;-81
2023/04/09 23:59:01;;;;;;;34.43;23.10;;;5.80;99.90;;;;;;10176793;29;20295;-81
